Time;durP1;ratioP1;P1;durP2;ratioP2;P2;SDS_P1;SDS_P2;PMS_P1;PMS_P2;Temp;Humidity;BMP_temperature;BMP_pressure;BME280_temperature;BME280_humidity;BME280_pressure;Samples;Min_cycle;Max_cycle;Signal;HPM_P1;HPM_P2
2022/12/18 00:01:23;;;;;;;73.05;28.50;;;;;;;;;;5097878;28;20130;-89
2022/12/18 00:03:51;;;;;;;69.75;29.42;;;;;;;;;;5114885;28;20104;-88
2022/12/18 00:06:17;;;;;;;73.97;30.15;;;;;;;;;;5115010;28;20039;-88
2022/12/18 00:08:43;;;;;;;60.05;28.15;;;;;;;;;;5115032;28;20039;-88
2022/12/18 00:11:17;;;;;;;79.88;31.05;;;;;;;;;;5114827;28;20580;-87
2022/12/18 00:13:43;;;;;;;68.15;26.88;;;;;;;;;;5097775;28;20441;-88
2022/12/18 00:16:11;;;;;;;69.22;27.98;;;;;;;;;;5097663;28;20455;-88
2022/12/18 00:18:38;;;;;;;68.72;23.83;;;;;;;;;;5115098;28;20373;-90
2022/12/18 00:21:07;;;;;;;68.80;29.15;;;;;;;;;;5114978;28;20592;-84
2022/12/18 00:23:34;;;;;;;60.55;28.27;;;;;;;;;;5097692;28;20039;-83
2022/12/18 00:26:04;;;;;;;67.18;28.05;;;;;;;;;;5080933;28;20043;-91
2022/12/18 00:28:36;;;;;;;78.68;30.33;;;;;;;;;;5098424;28;20055;-88
2022/12/18 00:31:07;;;;;;;73.88;30.00;;;;;;;;;;5097633;28;20062;-90
2022/12/18 00:33:39;;;;;;;62.33;23.50;;;;;;;;;;5098325;28;20043;-91
2022/12/18 00:36:07;;;;;;;78.68;28.15;;;;;;;;;;5114292;28;20079;-88
2022/12/18 00:38:34;;;;;;;70.10;29.33;;;;;;;;;;5114311;28;20059;-89
2022/12/18 00:41:00;;;;;;;60.95;28.27;;;;;;;;;;5115054;28;20457;-83
2022/12/18 00:43:26;;;;;;;71.10;27.65;;;;;;;;;;5097644;28;20039;-88
2022/12/18 00:45:58;;;;;;;64.22;28.65;;;;;;;;;;5082452;28;20430;-90
2022/12/18 00:48:24;;;;;;;65.82;29.08;;;;;;;;;;5081335;28;20043;-90
2022/12/18 00:50:56;;;;;;;75.38;29.92;;;;;;;;;;5099343;28;20048;-85
2022/12/18 00:53:22;;;;;;;71.13;28.67;;;;;;;;;;5096959;28;20586;-85
2022/12/18 00:55:48;;;;;;;70.45;29.17;;;;;;;;;;5096860;28;20087;-86
2022/12/18 00:58:16;;;;;;;66.43;28.02;;;;;;;;;;5113763;28;20050;-88
2022/12/18 01:00:42;;;;;;;67.32;28.15;;;;;;;;;;5113868;28;20043;-82
2022/12/18 01:03:08;;;;;;;72.75;29.83;;;;;;;;;;5114064;28;20377;-83
2022/12/18 01:05:34;;;;;;;61.22;27.58;;;;;;;;;;5113812;28;20048;-84
2022/12/18 01:08:03;;;;;;;69.18;28.20;;;;;;;;;;5113545;28;20039;-82
2022/12/18 01:10:29;;;;;;;62.55;26.50;;;;;;;;;;5079622;28;20526;-85
2022/12/18 01:13:02;;;;;;;64.10;28.05;;;;;;;;;;5096299;28;20047;-91
2022/12/18 01:15:28;;;;;;;55.90;24.95;;;;;;;;;;5095919;28;20518;-88
2022/12/18 01:17:57;;;;;;;51.10;23.83;;;;;;;;;;5113678;28;20039;-85
2022/12/18 01:20:26;;;;;;;59.20;25.30;;;;;;;;;;5080483;28;20611;-84
2022/12/18 01:22:52;;;;;;;62.22;28.63;;;;;;;;;;5113541;28;20075;-85
2022/12/18 01:25:18;;;;;;;62.38;26.83;;;;;;;;;;5096128;28;20058;-86
2022/12/18 01:27:44;;;;;;;66.45;28.05;;;;;;;;;;5096249;28;20039;-83
2022/12/18 01:30:11;;;;;;;54.03;24.48;;;;;;;;;;5079449;28;20058;-83
2022/12/18 01:32:37;;;;;;;59.00;22.40;;;;;;;;;;5113017;28;20054;-84
2022/12/18 01:35:03;;;;;;;59.72;25.35;;;;;;;;;;5113095;28;20043;-87
2022/12/18 01:37:29;;;;;;;62.90;27.10;;;;;;;;;;5079380;28;20039;-85
2022/12/18 01:39:58;;;;;;;64.50;26.65;;;;;;;;;;5113448;28;20078;-85
2022/12/18 01:42:25;;;;;;;67.95;26.42;;;;;;;;;;5112880;28;20071;-83
2022/12/18 01:45:27;;;;;;;63.25;24.88;;;;;;;;;;5095503;28;20089;-83
2022/12/18 01:47:56;;;;;;;62.47;27.77;;;;;;;;;;5077665;28;20051;-85
2022/12/18 01:50:30;;;;;;;60.92;27.98;;;;;;;;;;5077900;28;20044;-85
2022/12/18 01:53:12;;;;;;;58.45;26.25;;;;;;;;;;5077893;28;20048;-89
2022/12/18 01:56:07;;;;;;;67.45;27.52;;;;;;;;;;5077299;28;20101;-89
2022/12/18 01:58:42;;;;;;;54.13;26.25;;;;;;;;;;5076005;28;20047;-87
2022/12/18 02:01:09;;;;;;;60.25;25.48;;;;;;;;;;5077322;28;20040;-87
2022/12/18 02:03:35;;;;;;;66.30;26.15;;;;;;;;;;5094078;28;20138;-88
2022/12/18 02:06:04;;;;;;;60.05;25.05;;;;;;;;;;5060438;28;20546;-89
2022/12/18 02:08:48;;;;;;;66.68;27.63;;;;;;;;;;5077097;28;20047;-88
2022/12/18 02:11:18;;;;;;;62.17;26.75;;;;;;;;;;5094282;28;20109;-87
2022/12/18 02:13:53;;;;;;;58.30;26.15;;;;;;;;;;5077095;28;20051;-87
2022/12/18 02:16:19;;;;;;;59.85;26.08;;;;;;;;;;5093815;28;20381;-87
2022/12/18 02:18:54;;;;;;;57.67;26.33;;;;;;;;;;5085482;28;20050;-89
2022/12/18 02:21:30;;;;;;;57.53;25.38;;;;;;;;;;5095239;28;20495;-87
2022/12/18 02:24:14;;;;;;;56.75;25.15;;;;;;;;;;5112119;28;20436;-85
2022/12/18 02:26:51;;;;;;;54.85;25.33;;;;;;;;;;5095152;28;20547;-86
2022/12/18 02:29:29;;;;;;;54.72;25.35;;;;;;;;;;5111559;28;20504;-87
2022/12/18 02:31:59;;;;;;;57.03;26.73;;;;;;;;;;5094697;28;20051;-85
2022/12/18 02:34:27;;;;;;;55.67;23.90;;;;;;;;;;5094891;28;20412;-84
2022/12/18 02:36:54;;;;;;;56.10;24.92;;;;;;;;;;5111923;28;20039;-87
2022/12/18 02:39:21;;;;;;;62.53;27.33;;;;;;;;;;5094877;28;20047;-86
2022/12/18 02:41:48;;;;;;;54.88;28.30;;;;;;;;;;5094480;28;20047;-87
2022/12/18 02:44:15;;;;;;;60.78;24.40;;;;;;;;;;5094771;28;20130;-86
2022/12/18 02:46:44;;;;;;;51.25;22.90;;;;;;;;;;5111441;28;20503;-86
2022/12/18 02:49:22;;;;;;;55.05;25.98;;;;;;;;;;5111389;28;20492;-85
2022/12/18 02:51:53;;;;;;;60.28;25.92;;;;;;;;;;5094787;28;20031;-85
2022/12/18 02:54:46;;;;;;;56.30;25.48;;;;;;;;;;5094850;28;20039;-85
2022/12/18 02:57:21;;;;;;;61.63;25.58;;;;;;;;;;5087240;28;20499;-86
2022/12/18 03:00:05;;;;;;;60.80;24.80;;;;;;;;;;5111314;28;20047;-85
2022/12/18 03:02:48;;;;;;;64.72;25.92;;;;;;;;;;5094350;28;20047;-86
2022/12/18 03:05:17;;;;;;;65.13;28.80;;;;;;;;;;5111071;28;20047;-85
2022/12/18 03:07:58;;;;;;;53.97;24.60;;;;;;;;;;5111318;28;20115;-83
2022/12/18 03:10:27;;;;;;;66.93;25.67;;;;;;;;;;5091159;28;20043;-87
2022/12/18 03:12:56;;;;;;;56.50;24.88;;;;;;;;;;5094402;28;20040;-85
2022/12/18 03:15:29;;;;;;;66.85;30.05;;;;;;;;;;5093999;28;20131;-82
2022/12/18 03:18:27;;;;;;;66.60;26.80;;;;;;;;;;5095095;28;20048;-84
2022/12/18 03:20:56;;;;;;;62.30;27.63;;;;;;;;;;5091951;28;20138;-85
2022/12/18 03:23:25;;;;;;;72.63;27.08;;;;;;;;;;5111347;28;20040;-85
2022/12/18 03:25:52;;;;;;;61.97;24.77;;;;;;;;;;5093760;28;20043;-85
2022/12/18 03:28:20;;;;;;;72.00;28.90;;;;;;;;;;5093842;28;20474;-83
2022/12/18 03:30:47;;;;;;;60.10;28.02;;;;;;;;;;5093808;28;20055;-85
2022/12/18 03:33:22;;;;;;;74.40;33.00;;;;;;;;;;5093841;28;20043;-85
2022/12/18 03:35:48;;;;;;;63.47;26.50;;;;;;;;;;5110696;28;20526;-83
2022/12/18 03:38:14;;;;;;;67.35;28.63;;;;;;;;;;5110977;28;20491;-84
2022/12/18 03:41:00;;;;;;;67.55;27.63;;;;;;;;;;5094529;28;20047;-84
2022/12/18 03:43:35;;;;;;;66.85;27.70;;;;;;;;;;5111974;28;20048;-86
2022/12/18 03:46:10;;;;;;;68.47;26.65;;;;;;;;;;5112927;28;20055;-83
2022/12/18 03:48:43;;;;;;;64.97;28.05;;;;;;;;;;5130316;28;20047;-84
2022/12/18 03:51:12;;;;;;;66.15;28.50;;;;;;;;;;5096215;28;20051;-84
2022/12/18 03:53:47;;;;;;;61.85;26.42;;;;;;;;;;5096062;28;20050;-84
2022/12/18 03:56:14;;;;;;;63.05;27.70;;;;;;;;;;5096017;28;20058;-84
2022/12/18 03:58:42;;;;;;;60.05;26.00;;;;;;;;;;5130430;28;20047;-83
2022/12/18 04:01:09;;;;;;;67.47;28.40;;;;;;;;;;5095871;28;20062;-83
2022/12/18 04:03:36;;;;;;;57.72;26.98;;;;;;;;;;5096434;28;20035;-82
2022/12/18 04:06:02;;;;;;;63.35;26.42;;;;;;;;;;5096314;27;20047;-82
2022/12/18 04:08:29;;;;;;;59.55;25.65;;;;;;;;;;5133942;27;20518;-82
2022/12/18 04:10:55;;;;;;;66.88;26.70;;;;;;;;;;5082781;27;20125;-83
2022/12/18 04:13:27;;;;;;;61.63;28.00;;;;;;;;;;5117051;27;20031;-84
2022/12/18 04:15:55;;;;;;;53.28;26.45;;;;;;;;;;5098676;27;20043;-84
2022/12/18 04:18:21;;;;;;;62.50;27.33;;;;;;;;;;5097150;28;20040;-84
2022/12/18 04:20:47;;;;;;;69.28;27.38;;;;;;;;;;5114089;28;20051;-83
2022/12/18 04:23:13;;;;;;;59.20;27.42;;;;;;;;;;5114125;28;20047;-84
2022/12/18 04:25:42;;;;;;;57.25;27.00;;;;;;;;;;5113422;28;20055;-82
2022/12/18 04:28:08;;;;;;;57.97;25.27;;;;;;;;;;5114199;28;20134;-85
2022/12/18 04:30:36;;;;;;;62.47;26.73;;;;;;;;;;5097013;28;20108;-83
2022/12/18 04:33:03;;;;;;;56.60;24.33;;;;;;;;;;5080707;28;20059;-84
2022/12/18 04:35:29;;;;;;;53.15;25.67;;;;;;;;;;5080335;28;20047;-84
2022/12/18 04:37:55;;;;;;;56.25;26.13;;;;;;;;;;5080158;28;20043;-85
2022/12/18 04:40:22;;;;;;;57.78;25.35;;;;;;;;;;5113738;28;20082;-84
2022/12/18 04:42:48;;;;;;;55.95;25.98;;;;;;;;;;5096809;28;20081;-84
2022/12/18 04:45:14;;;;;;;46.22;23.92;;;;;;;;;;5096412;28;20083;-83
2022/12/18 04:47:40;;;;;;;53.70;24.50;;;;;;;;;;5096757;28;20047;-83
2022/12/18 04:50:06;;;;;;;49.15;24.67;;;;;;;;;;5096605;28;20046;-85
2022/12/18 04:52:32;;;;;;;59.65;24.40;;;;;;;;;;5096458;28;20039;-83
2022/12/18 04:54:58;;;;;;;50.25;24.83;;;;;;;;;;5096422;28;20130;-84
2022/12/18 04:57:24;;;;;;;54.00;22.73;;;;;;;;;;5096533;28;20035;-85
2022/12/18 04:59:50;;;;;;;58.35;23.55;;;;;;;;;;5096719;28;20056;-85
2022/12/18 05:02:16;;;;;;;62.80;25.40;;;;;;;;;;5096140;28;20050;-85
2022/12/18 05:04:42;;;;;;;56.13;26.02;;;;;;;;;;5096482;28;20505;-82
2022/12/18 05:07:08;;;;;;;56.95;22.95;;;;;;;;;;5113384;28;20559;-82
2022/12/18 05:09:34;;;;;;;45.35;21.25;;;;;;;;;;5079845;28;20048;-83
2022/12/18 05:12:01;;;;;;;51.10;22.05;;;;;;;;;;5096655;28;20043;-85
2022/12/18 05:14:28;;;;;;;58.97;25.52;;;;;;;;;;5096246;28;20507;-81
2022/12/18 05:16:55;;;;;;;58.15;21.50;;;;;;;;;;5096126;28;20073;-84
2022/12/18 05:19:21;;;;;;;52.03;23.00;;;;;;;;;;5112074;28;20054;-82
2022/12/18 05:21:47;;;;;;;55.28;22.80;;;;;;;;;;5096092;28;20078;-83
2022/12/18 05:24:13;;;;;;;45.95;22.65;;;;;;;;;;5112634;28;20127;-81
2022/12/18 05:26:39;;;;;;;45.08;22.35;;;;;;;;;;5096145;28;20146;-83
2022/12/18 05:29:12;;;;;;;49.17;23.52;;;;;;;;;;5080752;28;20094;-84
2022/12/18 05:31:42;;;;;;;50.33;22.63;;;;;;;;;;5112207;28;20556;-83
2022/12/18 05:34:08;;;;;;;42.33;21.75;;;;;;;;;;5113029;28;20047;-82
2022/12/18 05:36:34;;;;;;;45.90;21.80;;;;;;;;;;5112705;28;20130;-84
2022/12/18 05:39:01;;;;;;;44.58;21.38;;;;;;;;;;5112632;28;20051;-84
2022/12/18 05:41:27;;;;;;;50.85;23.20;;;;;;;;;;5095758;28;20096;-82
2022/12/18 05:43:53;;;;;;;42.67;21.48;;;;;;;;;;5095605;28;20051;-83
2022/12/18 05:46:19;;;;;;;56.45;23.92;;;;;;;;;;5112072;28;20054;-83
2022/12/18 05:48:46;;;;;;;46.10;20.77;;;;;;;;;;5112680;28;20035;-84
2022/12/18 05:51:14;;;;;;;51.83;22.25;;;;;;;;;;5095506;28;20130;-84
2022/12/18 05:53:40;;;;;;;50.35;20.83;;;;;;;;;;5112519;28;20514;-83
2022/12/18 05:56:08;;;;;;;52.28;22.30;;;;;;;;;;5112404;28;20492;-84
2022/12/18 05:58:34;;;;;;;50.83;21.17;;;;;;;;;;5095315;28;20050;-81
2022/12/18 06:01:22;;;;;;;58.80;22.95;;;;;;;;;;5112181;28;20047;-83
2022/12/18 06:03:49;;;;;;;53.50;24.10;;;;;;;;;;5111853;28;20052;-83
2022/12/18 06:06:20;;;;;;;48.53;20.92;;;;;;;;;;5078713;28;20047;-82
2022/12/18 06:08:47;;;;;;;45.72;22.33;;;;;;;;;;5112078;28;20044;-78
2022/12/18 06:11:13;;;;;;;46.78;21.50;;;;;;;;;;5095260;28;20400;-82
2022/12/18 06:13:39;;;;;;;50.42;21.15;;;;;;;;;;5112248;28;20056;-84
2022/12/18 06:16:06;;;;;;;50.83;22.30;;;;;;;;;;5095125;28;20080;-82
2022/12/18 06:18:32;;;;;;;45.58;21.33;;;;;;;;;;5112180;28;20126;-83
2022/12/18 06:20:59;;;;;;;42.10;19.70;;;;;;;;;;5095045;28;20504;-83
2022/12/18 06:23:25;;;;;;;53.05;20.48;;;;;;;;;;5095079;28;20373;-81
2022/12/18 06:25:51;;;;;;;48.67;24.05;;;;;;;;;;5094574;28;20204;-81
2022/12/18 06:28:19;;;;;;;47.42;21.70;;;;;;;;;;5112027;28;20070;-82
2022/12/18 06:30:45;;;;;;;73.22;24.90;;;;;;;;;;5112236;28;20078;-79
2022/12/18 06:33:11;;;;;;;48.08;21.20;;;;;;;;;;5094647;28;20050;-81
2022/12/18 06:35:46;;;;;;;53.60;23.80;;;;;;;;;;5112746;28;20039;-82
2022/12/18 06:38:12;;;;;;;35.92;15.80;;;;;;;;;;5094759;28;20139;-82
2022/12/18 06:40:41;;;;;;;43.28;21.92;;;;;;;;;;5112792;28;20530;-79
2022/12/18 06:43:07;;;;;;;61.22;21.98;;;;;;;;;;5094599;28;20054;-80
2022/12/18 06:45:33;;;;;;;49.47;21.50;;;;;;;;;;5094176;28;20093;-83
2022/12/18 06:48:00;;;;;;;51.92;22.85;;;;;;;;;;5094687;28;20071;-83
2022/12/18 06:50:26;;;;;;;55.03;22.25;;;;;;;;;;5094489;28;20483;-81
2022/12/18 06:52:52;;;;;;;49.05;22.65;;;;;;;;;;5111528;28;20031;-76
2022/12/18 06:55:18;;;;;;;46.33;21.15;;;;;;;;;;5094472;28;20093;-82
2022/12/18 06:57:44;;;;;;;43.60;18.27;;;;;;;;;;5094291;28;20040;-77
2022/12/18 07:00:11;;;;;;;49.10;21.55;;;;;;;;;;5111529;28;20051;-83
2022/12/18 07:02:37;;;;;;;47.92;20.55;;;;;;;;;;5094493;28;20051;-83
2022/12/18 07:05:03;;;;;;;51.45;19.80;;;;;;;;;;5111065;28;20124;-81
2022/12/18 07:07:29;;;;;;;44.67;20.05;;;;;;;;;;5111147;28;20044;-80
2022/12/18 07:09:55;;;;;;;41.97;19.52;;;;;;;;;;5094471;28;20051;-81
2022/12/18 07:12:21;;;;;;;44.97;19.40;;;;;;;;;;5111106;28;20118;-82
2022/12/18 07:14:47;;;;;;;42.40;20.05;;;;;;;;;;5111194;28;20487;-79
2022/12/18 07:17:13;;;;;;;40.55;19.08;;;;;;;;;;5111078;28;20452;-81
2022/12/18 07:19:39;;;;;;;43.40;20.55;;;;;;;;;;5111378;28;20453;-82
2022/12/18 07:22:05;;;;;;;45.13;20.98;;;;;;;;;;5111235;28;20039;-82
2022/12/18 07:24:33;;;;;;;45.97;20.15;;;;;;;;;;5093957;28;20054;-78
2022/12/18 07:26:59;;;;;;;42.25;20.80;;;;;;;;;;5112083;28;20060;-79
2022/12/18 07:29:26;;;;;;;38.15;19.67;;;;;;;;;;5093917;28;20051;-82
2022/12/18 07:31:52;;;;;;;43.63;18.60;;;;;;;;;;5111017;28;20130;-82
2022/12/18 07:34:18;;;;;;;36.47;19.52;;;;;;;;;;5110731;28;20078;-82
2022/12/18 07:36:44;;;;;;;34.83;18.13;;;;;;;;;;5093604;28;20059;-83
2022/12/18 07:39:13;;;;;;;41.28;17.30;;;;;;;;;;5110916;28;20100;-83
2022/12/18 07:41:45;;;;;;;41.35;17.23;;;;;;;;;;5095688;28;20043;-78
2022/12/18 07:44:11;;;;;;;42.08;17.33;;;;;;;;;;5115074;28;20404;-80
2022/12/18 07:46:38;;;;;;;32.15;16.23;;;;;;;;;;5114470;28;20040;-78
2022/12/18 07:49:05;;;;;;;27.00;15.82;;;;;;;;;;5097710;28;20487;-81
2022/12/18 07:51:31;;;;;;;34.60;17.23;;;;;;;;;;5097695;28;20051;-79
2022/12/18 07:53:57;;;;;;;31.95;17.10;;;;;;;;;;5114583;28;20043;-76
2022/12/18 07:56:28;;;;;;;36.92;17.23;;;;;;;;;;5097906;28;20048;-80
2022/12/18 07:58:54;;;;;;;39.10;18.38;;;;;;;;;;5114084;28;20052;-78
2022/12/18 08:01:20;;;;;;;35.95;18.10;;;;;;;;;;5080740;28;20093;-78
2022/12/18 08:03:46;;;;;;;34.60;17.63;;;;;;;;;;5080500;28;20059;-80
2022/12/18 08:06:13;;;;;;;34.72;17.30;;;;;;;;;;5114380;28;20076;-80
2022/12/18 08:08:41;;;;;;;34.15;18.02;;;;;;;;;;5097329;28;20075;-82
2022/12/18 08:11:07;;;;;;;34.72;16.90;;;;;;;;;;5097850;28;20055;-79
2022/12/18 08:13:33;;;;;;;35.08;16.48;;;;;;;;;;5080836;28;20051;-79
2022/12/18 08:16:04;;;;;;;35.83;17.40;;;;;;;;;;5114389;28;20039;-78
2022/12/18 08:18:30;;;;;;;29.70;16.13;;;;;;;;;;5114575;28;20044;-78
2022/12/18 08:20:56;;;;;;;40.88;18.15;;;;;;;;;;5114151;28;20143;-79
2022/12/18 08:23:22;;;;;;;31.58;15.48;;;;;;;;;;5097024;28;20488;-78
2022/12/18 08:25:49;;;;;;;27.02;15.07;;;;;;;;;;5096881;28;20567;-78
2022/12/18 08:28:17;;;;;;;28.48;15.05;;;;;;;;;;5080281;28;20054;-79
2022/12/18 08:30:43;;;;;;;31.30;16.27;;;;;;;;;;5096870;28;20060;-79
2022/12/18 08:33:09;;;;;;;27.08;14.35;;;;;;;;;;5114134;28;20120;-79
2022/12/18 08:35:36;;;;;;;30.35;16.40;;;;;;;;;;5080204;28;20048;-79
2022/12/18 08:38:10;;;;;;;26.87;14.37;;;;;;;;;;5114174;28;20143;-78
2022/12/18 08:40:37;;;;;;;29.10;16.92;;;;;;;;;;5080288;28;20047;-78
2022/12/18 08:45:48;;;;;;;27.38;13.23;;;;;;;;;;5113444;28;20156;-78
2022/12/18 08:48:14;;;;;;;27.80;15.85;;;;;;;;;;5113891;28;20040;-78
2022/12/18 08:50:40;;;;;;;27.70;16.17;;;;;;;;;;5096600;28;20051;-78
2022/12/18 08:53:06;;;;;;;38.53;15.65;;;;;;;;;;5096675;28;20044;-78
2022/12/18 08:55:32;;;;;;;26.80;14.13;;;;;;;;;;5113421;28;20082;-78
2022/12/18 08:57:58;;;;;;;27.00;15.02;;;;;;;;;;5113353;28;20086;-78
2022/12/18 09:00:24;;;;;;;27.83;14.38;;;;;;;;;;5079912;28;20407;-78
2022/12/18 09:02:50;;;;;;;34.67;16.65;;;;;;;;;;5113578;28;20039;-78
2022/12/18 09:05:17;;;;;;;27.13;14.70;;;;;;;;;;5113200;28;20048;-78
2022/12/18 09:07:43;;;;;;;22.45;13.82;;;;;;;;;;5096606;28;20078;-77
2022/12/18 09:10:09;;;;;;;25.52;14.50;;;;;;;;;;5113469;28;20411;-78
2022/12/18 09:12:35;;;;;;;26.30;15.75;;;;;;;;;;5096618;28;20071;-78
2022/12/18 09:15:01;;;;;;;21.15;13.05;;;;;;;;;;5096027;28;20043;-78
2022/12/18 09:17:27;;;;;;;30.50;14.18;;;;;;;;;;5113103;28;20101;-79
2022/12/18 09:19:54;;;;;;;26.33;14.02;;;;;;;;;;5096096;28;20043;-78
2022/12/18 09:22:20;;;;;;;26.88;14.52;;;;;;;;;;5079156;28;20043;-79
2022/12/18 09:24:46;;;;;;;31.13;14.90;;;;;;;;;;5095933;28;20149;-78
2022/12/18 09:27:12;;;;;;;28.50;15.00;;;;;;;;;;5096167;28;20130;-78
2022/12/18 09:29:38;;;;;;;31.77;14.35;;;;;;;;;;5112601;28;20044;-78
2022/12/18 09:32:04;;;;;;;28.10;14.60;;;;;;;;;;5095831;28;20058;-78
2022/12/18 09:34:30;;;;;;;29.60;16.10;;;;;;;;;;5095997;28;20052;-78
2022/12/18 09:36:56;;;;;;;24.65;15.20;;;;;;;;;;5112966;28;20036;-78
2022/12/18 09:39:22;;;;;;;24.15;13.65;;;;;;;;;;5112678;28;20075;-78
2022/12/18 09:41:49;;;;;;;26.90;16.52;;;;;;;;;;5095957;28;20046;-79
2022/12/18 09:44:26;;;;;;;27.20;15.32;;;;;;;;;;5095864;28;20056;-78
2022/12/18 09:46:55;;;;;;;29.58;15.95;;;;;;;;;;5095460;28;20147;-78
2022/12/18 09:49:23;;;;;;;27.90;15.00;;;;;;;;;;5095524;28;20032;-78
2022/12/18 09:51:53;;;;;;;29.83;15.82;;;;;;;;;;5095391;28;20051;-78
2022/12/18 09:54:22;;;;;;;23.80;13.43;;;;;;;;;;5095258;28;20086;-79
2022/12/18 09:56:48;;;;;;;24.67;14.30;;;;;;;;;;5095486;28;20131;-78
2022/12/18 09:59:24;;;;;;;22.15;13.70;;;;;;;;;;5095263;28;20044;-78
2022/12/18 10:01:50;;;;;;;26.85;15.48;;;;;;;;;;5112426;28;20427;-78
2022/12/18 10:04:16;;;;;;;24.60;14.10;;;;;;;;;;5094759;28;20039;-78
2022/12/18 10:06:50;;;;;;;24.27;14.02;;;;;;;;;;5112063;28;20040;-78
2022/12/18 10:09:16;;;;;;;26.83;15.73;;;;;;;;;;5095290;28;20044;-78
2022/12/18 10:12:01;;;;;;;24.27;13.38;;;-3.20;99.90;;;;;;5113550;28;20134;-79
2022/12/18 10:14:34;;;;;;;26.30;14.93;;;;;;;;;;5112270;28;20055;-79
2022/12/18 10:17:03;;;;;;;27.58;15.77;;;;;;;;;;5094899;28;20043;-80
2022/12/18 10:19:35;;;;;;;25.00;14.32;;;;;;;;;;5113259;28;20047;-79
2022/12/18 10:22:01;;;;;;;24.95;14.25;;;;;;;;;;5112079;28;20309;-79
2022/12/18 10:24:34;;;;;;;23.92;13.95;;;;;;;;;;5111780;28;20043;-80
2022/12/18 10:27:08;;;;;;;23.73;13.70;;;;;;;;;;5111886;28;20059;-80
2022/12/18 10:29:35;;;;;;;27.50;15.88;;;;;;;;;;5111630;28;20453;-79
2022/12/18 10:32:01;;;;;;;21.88;13.30;;;;;;;;;;5095154;28;20051;-80
2022/12/18 10:34:27;;;;;;;23.55;12.80;;;;;;;;;;5094855;28;20071;-79
2022/12/18 10:36:53;;;;;;;21.83;11.98;;;;;;;;;;5095061;28;20055;-79
2022/12/18 10:39:22;;;;;;;18.83;12.35;;;;;;;;;;5113028;28;20066;-79
2022/12/18 10:41:48;;;;;;;18.60;11.25;;;;;;;;;;5112698;28;20052;-79
2022/12/18 10:44:17;;;;;;;19.75;13.10;;;;;;;;;;5111561;28;20074;-79
2022/12/18 10:46:44;;;;;;;29.38;13.95;;;;;;;;;;5111093;28;20079;-80
2022/12/18 10:49:22;;;;;;;16.90;10.88;;;;;;;;;;5094763;28;20435;-79
2022/12/18 10:51:48;;;;;;;17.45;11.40;;;;;;;;;;5111782;28;20100;-79
2022/12/18 10:54:20;;;;;;;19.83;10.40;;;;;;;;;;5111453;28;20074;-79
2022/12/18 10:56:46;;;;;;;20.73;12.07;;;;;;;;;;5094433;28;20120;-79
2022/12/18 10:59:14;;;;;;;22.13;11.93;;;;;;;;;;5111237;28;20108;-83
2022/12/18 11:02:07;;;;;;;20.67;11.80;;;;;;;;;;5111586;28;20404;-82
2022/12/18 11:04:35;;;;;;;21.83;11.95;;;;;;;;;;5109273;28;20139;-84
2022/12/18 11:07:04;;;;;;;20.67;11.48;;;;;;;;;;5111486;28;20048;-80
2022/12/18 11:09:31;;;;;;;18.08;11.52;;;;;;;;;;5111253;28;20078;-79
2022/12/18 11:11:59;;;;;;;19.27;10.80;;;;;;;;;;5094501;28;20451;-80
2022/12/18 11:14:31;;;;;;;23.40;12.82;;;;;;;;;;5094130;28;20050;-81
2022/12/18 11:16:58;;;;;;;26.05;12.90;;;;;;;;;;5113487;28;20043;-80
2022/12/18 11:19:35;;;;;;;21.67;11.80;;;;;;;;;;5115468;28;20040;-78
2022/12/18 11:22:03;;;;;;;19.27;11.63;;;;;;;;;;5115388;28;20131;-80
2022/12/18 11:24:36;;;;;;;20.27;11.23;;;;;;;;;;5098564;28;20050;-78
2022/12/18 11:27:03;;;;;;;19.55;10.93;;;;;;;;;;5115273;28;20095;-79
2022/12/18 11:29:34;;;;;;;26.85;12.98;;;;;;;;;;5098101;28;20047;-79
2022/12/18 11:32:26;;;;;;;19.83;11.98;;;;;;;;;;5115061;28;20051;-81
2022/12/18 11:35:19;;;;;;;19.02;11.70;;;-2.40;99.90;;;;;;5099356;28;20055;-80
2022/12/18 11:37:49;;;;;;;19.77;11.50;;;;;;;;;;5114440;28;20055;-79
2022/12/18 11:40:18;;;;;;;20.08;10.48;;;;;;;;;;5114980;28;20047;-84
2022/12/18 11:43:03;;;;;;;17.63;10.23;;;;;;;;;;5097934;28;20044;-81
2022/12/18 11:45:31;;;;;;;19.83;9.70;;;;;;;;;;5114752;28;20051;-83
2022/12/18 11:48:13;;;;;;;16.75;9.68;;;;;;;;;;5097908;28;20039;-80
2022/12/18 11:50:42;;;;;;;18.88;9.45;;;;;;;;;;5115205;28;20039;-83
2022/12/18 11:53:12;;;;;;;13.13;7.35;;;;;;;;;;5097936;28;20491;-84
2022/12/18 11:55:57;;;;;;;18.30;10.10;;;;;;;;;;5098069;28;20403;-83
2022/12/18 11:58:32;;;;;;;16.40;9.18;;;;;;;;;;5114529;28;20484;-83
2022/12/18 12:01:08;;;;;;;12.27;8.13;;;;;;;;;;5114616;28;20040;-80
2022/12/18 12:03:44;;;;;;;13.95;8.43;;;;;;;;;;5114546;28;20048;-80
2022/12/18 12:06:22;;;;;;;12.60;7.93;;;;;;;;;;5114509;28;20381;-83
2022/12/18 12:08:51;;;;;;;15.57;9.27;;;;;;;;;;5097713;28;20043;-83
2022/12/18 12:11:30;;;;;;;14.70;8.32;;;;;;;;;;5097324;28;20050;-81
2022/12/18 12:14:15;;;;;;;13.35;7.93;;;;;;;;;;5114849;28;20560;-81
2022/12/18 12:16:49;;;;;;;13.98;7.32;;;;;;;;;;5097392;28;20127;-80
2022/12/18 12:19:46;;;;;;;7.95;6.15;;;-1.80;99.90;;;;;;5114583;28;20051;-80
2022/12/18 12:22:18;;;;;;;12.20;7.75;;;;;;;;;;5097409;28;20045;-81
2022/12/18 12:24:44;;;;;;;11.15;7.68;;;;;;;;;;5114214;28;20051;-80
2022/12/18 12:27:14;;;;;;;11.30;7.72;;;;;;;;;;5113680;28;20039;-82
2022/12/18 12:30:04;;;;;;;12.32;7.55;;;-2.00;99.90;;;;;;5096976;28;20133;-81
2022/12/18 12:32:39;;;;;;;9.32;6.57;;;;;;;;;;5115420;28;20055;-81
2022/12/18 12:35:08;;;;;;;12.75;7.13;;;;;;;;;;5115248;28;20071;-81
2022/12/18 12:37:49;;;;;;;10.05;7.05;;;;;;;;;;5113912;28;20040;-80
2022/12/18 12:40:18;;;;;;;11.75;7.35;;;;;;;;;;5114110;28;20043;-80
2022/12/18 12:45:37;;;;;;;10.73;6.70;;;;;;;;;;5113682;28;20063;-79
2022/12/18 12:48:04;;;;;;;10.80;6.78;;;;;;;;;;5113984;28;20503;-79
2022/12/18 12:50:33;;;;;;;7.35;6.40;;;;;;;;;;5096938;28;20143;-79
2022/12/18 12:53:02;;;;;;;11.85;6.28;;;;;;;;;;5114191;28;20040;-79
2022/12/18 12:55:29;;;;;;;8.35;5.93;;;;;;;;;;5096628;28;20079;-79
2022/12/18 12:58:15;;;;;;;8.25;5.65;;;;;;;;;;5113674;28;20126;-79
2022/12/18 13:00:50;;;;;;;9.05;6.38;;;;;;;;;;5113524;28;20055;-79
2022/12/18 13:03:40;;;;;;;11.73;6.05;;;;;;;;;;5113421;28;20039;-79
2022/12/18 13:06:29;;;;;;;9.82;5.50;;;;;;;;;;5059232;28;20051;-79
2022/12/18 13:09:00;;;;;;;8.88;5.75;;;-1.20;99.90;;;;;;5096337;28;20116;-79
2022/12/18 13:14:23;;;;;;;8.13;5.63;;;;;;;;;;5113091;28;20050;-79
2022/12/18 13:16:49;;;;;;;;;;;;;;;;;;5113391;28;20126;-79
2022/12/18 13:19:26;;;;;;;6.80;5.57;;;;;;;;;;5113815;28;19962;-79
2022/12/18 13:21:54;;;;;;;10.23;5.63;;;;;;;;;;5095891;28;20500;-79
2022/12/18 13:24:23;;;;;;;10.63;6.45;;;;;;;;;;5113087;28;20057;-79
2022/12/18 13:26:49;;;;;;;10.75;6.65;;;;;;;;;;5095763;28;20047;-79
2022/12/18 13:29:35;;;;;;;9.60;5.97;;;;;;;;;;5095932;28;20527;-79
2022/12/18 13:32:01;;;;;;;11.45;5.95;;;;;;;;;;5095751;28;20085;-80
2022/12/18 13:34:31;;;;;;;10.23;6.60;;;;;;;;;;5078932;28;20522;-80
2022/12/18 13:37:18;;;;;;;7.78;4.93;;;;;;;;;;5112579;28;20529;-79
2022/12/18 13:39:44;;;;;;;6.40;5.03;;;;;;;;;;5111885;28;20044;-83
2022/12/18 13:43:12;;;;;;;9.98;5.50;;;;;;;;;;5095988;28;20544;-84
2022/12/18 13:44:56;;;;;;;7.28;5.55;;;;;;;;;;5112390;28;20047;-85
2022/12/18 13:47:26;;;;;;;9.75;5.38;;;;;;;;;;5114136;28;20104;-82
2022/12/18 13:49:52;;;;;;;11.48;5.82;;;;;;;;;;5096008;28;20376;-81
2022/12/18 13:52:20;;;;;;;7.10;5.30;;;;;;;;;;5096171;28;20457;-82
2022/12/18 13:54:48;;;;;;;8.25;5.00;;;;;;;;;;5095392;28;20138;-83
2022/12/18 13:57:31;;;;;;;8.52;5.55;;;;;;;;;;5095984;28;20400;-82
2022/12/18 13:59:58;;;;;;;7.63;5.80;;;;;;;;;;5095824;28;20572;-84
2022/12/18 14:02:30;;;;;;;10.00;5.28;;;;;;;;;;5096754;28;20050;-84
2022/12/18 14:04:56;;;;;;;7.80;5.28;;;;;;;;;;5078798;28;20127;-82
2022/12/18 14:07:24;;;;;;;8.90;6.15;;;;;;;;;;5095821;28;20159;-81
2022/12/18 14:09:56;;;;;;;18.13;6.10;;;;;;;;;;5095658;28;20058;-84
2022/12/18 14:15:27;;;;;;;12.63;5.95;;;;;;;;;;5112882;28;20448;-83
2022/12/18 14:17:55;;;;;;;10.65;5.45;;;;;;;;;;5095925;28;20043;-83
2022/12/18 14:20:21;;;;;;;7.75;5.20;;;;;;;;;;5112696;28;20050;-83
2022/12/18 14:22:48;;;;;;;7.43;5.43;;;;;;;;;;5112475;28;20048;-83
2022/12/18 14:25:22;;;;;;;6.85;5.10;;;;;;;;;;5112124;28;20165;-82
2022/12/18 14:27:50;;;;;;;6.68;4.93;;;;;;;;;;5096104;28;20047;-82
2022/12/18 14:30:26;;;;;;;6.03;4.32;;;;;;;;;;5096544;28;20449;-81
2022/12/18 14:33:02;;;;;;;7.00;5.13;;;;;;;;;;5113019;28;20116;-85
2022/12/18 14:35:29;;;;;;;6.38;4.60;;;;;;;;;;5096936;28;20043;-84
2022/12/18 14:38:09;;;;;;;10.55;6.05;;;;;;;;;;5096365;28;20047;-84
2022/12/18 14:40:36;;;;;;;6.65;4.93;;;;;;;;;;5112646;28;20135;-82
2022/12/18 14:43:02;;;;;;;7.30;5.60;;;;;;;;;;5095664;28;20134;-84
2022/12/18 14:45:36;;;;;;;11.43;5.78;;;;;;;;;;5077954;28;20043;-83